Terminal Aerodrome Forecast
Issued by NWS Cleveland, OH

Home | Current Version | Previous Version | Graphics & Text | Print | Product List | Glossary On
Versions: 1 2 3 4 5 6 7 8 9 10 11 12 13 14 15 16 17 18 19 20 21 22 23 24 25 26 27 28
140
FTUS41 KCLE 280856 AAB
TAFCLE
TAF AMD
KCLE 280856Z 2809/2912 04008KT P6SM OVC080
     FM281200 08010KT P6SM -SHRA OVC035
     FM281500 06012KT 6SM -SHRA BR BKN018
     FM281800 04012KT P6SM OVC009
     FM290200 03007KT 5SM BR VCSH OVC006=

USA.gov is the U.S. government's official web portal to all federal, state and local government web resources and services.